createdAt,value
2018-07-12T00:00:20.310Z,99.90
2018-07-12T00:02:51.456Z,99.90
2018-07-12T00:05:19.935Z,99.90
2018-07-12T00:07:48.263Z,99.90
2018-07-12T00:13:09.579Z,99.90
2018-07-12T00:15:43.121Z,99.90
2018-07-12T00:18:16.718Z,99.90
2018-07-12T00:20:55.220Z,99.90
2018-07-12T00:23:35.040Z,99.90
2018-07-12T00:26:05.887Z,99.90
2018-07-12T00:28:35.190Z,99.90
2018-07-12T00:31:24.090Z,99.90
2018-07-12T00:33:57.408Z,99.90
2018-07-12T00:36:40.240Z,99.90
2018-07-12T00:42:03.414Z,99.90
2018-07-12T00:44:30.900Z,99.90
2018-07-12T00:47:01.430Z,99.90
2018-07-12T00:49:42.018Z,99.90
2018-07-12T00:52:09.365Z,99.90
2018-07-12T00:54:45.273Z,99.90
2018-07-12T00:57:20.066Z,99.90
2018-07-12T00:59:50.965Z,99.90
2018-07-12T01:02:20.287Z,99.90
2018-07-12T01:04:47.741Z,99.90
2018-07-12T01:10:16.382Z,99.90
2018-07-12T01:15:37.463Z,99.90
2018-07-12T01:18:05.888Z,99.90
2018-07-12T01:26:08.484Z,99.90
2018-07-12T01:28:43.886Z,99.90
2018-07-12T01:34:03.810Z,99.90
2018-07-12T01:36:31.189Z,99.90
2018-07-12T01:38:58.650Z,99.90
2018-07-12T01:41:26.108Z,99.90
2018-07-12T01:43:53.561Z,99.90
2018-07-12T01:46:21.019Z,99.90
2018-07-12T01:48:48.487Z,99.90
2018-07-12T01:51:15.937Z,99.90
2018-07-12T01:53:43.375Z,99.90
2018-07-12T01:56:13.026Z,99.90
2018-07-12T01:58:42.471Z,99.90
2018-07-12T02:01:11.815Z,99.90
2018-07-12T02:03:58.343Z,99.90
2018-07-12T02:06:32.431Z,99.90
2018-07-12T02:09:01.723Z,99.90
2018-07-12T02:11:50.421Z,99.90
2018-07-12T02:14:19.906Z,99.90
2018-07-12T02:16:55.310Z,99.90
2018-07-12T02:19:27.083Z,99.90
2018-07-12T02:21:56.399Z,99.90
2018-07-12T02:24:35.173Z,99.90
2018-07-12T02:27:08.793Z,99.90
2018-07-12T02:29:42.371Z,99.90
2018-07-12T02:32:10.795Z,99.90
2018-07-12T02:37:35.529Z,99.90
2018-07-12T02:40:09.997Z,99.90
2018-07-12T02:42:47.583Z,99.90
2018-07-12T02:45:14.884Z,99.90
2018-07-12T02:48:01.529Z,99.90
2018-07-12T02:50:32.465Z,99.90
2018-07-12T02:53:10.956Z,99.90
2018-07-12T02:55:38.433Z,99.90
2018-07-12T02:58:05.908Z,99.90
2018-07-12T03:03:23.229Z,99.90
2018-07-12T03:05:53.749Z,99.90
2018-07-12T03:08:34.325Z,99.90
2018-07-12T03:17:10.528Z,99.90
2018-07-12T03:19:45.608Z,99.90
2018-07-12T03:22:26.257Z,99.90
2018-07-12T03:24:55.312Z,99.90
2018-07-12T03:27:22.800Z,99.90
2018-07-12T03:32:48.422Z,99.90
2018-07-12T03:35:34.834Z,99.90
2018-07-12T03:38:15.220Z,99.90
2018-07-12T03:40:42.536Z,99.90
2018-07-12T03:43:13.900Z,99.90
2018-07-12T03:45:52.361Z,99.90
2018-07-12T03:48:45.010Z,99.90
2018-07-12T03:51:19.546Z,99.90
2018-07-12T03:53:50.420Z,99.90
2018-07-12T03:56:21.933Z,99.90
2018-07-12T03:58:50.232Z,99.90
2018-07-12T04:01:23.241Z,99.90
2018-07-12T04:04:00.802Z,99.90
2018-07-12T04:06:31.376Z,99.90
2018-07-12T04:09:04.903Z,99.90
2018-07-12T04:11:37.661Z,99.90
2018-07-12T04:14:12.111Z,99.90
2018-07-12T04:16:39.412Z,99.90
2018-07-12T04:19:06.810Z,99.90
2018-07-12T04:21:37.300Z,99.90
2018-07-12T04:24:05.703Z,99.90
2018-07-12T04:26:33.168Z,99.90
2018-07-12T04:29:09.603Z,99.90
2018-07-12T04:31:38.129Z,99.90
2018-07-12T04:34:17.278Z,99.90
2018-07-12T04:36:48.184Z,99.90
2018-07-12T04:39:22.664Z,99.90
2018-07-12T04:41:50.195Z,99.90
2018-07-12T04:46:45.086Z,99.90
2018-07-12T04:49:12.556Z,99.90
2018-07-12T04:51:41.259Z,99.90
2018-07-12T04:56:37.414Z,99.90
2018-07-12T04:59:04.844Z,99.90
2018-07-12T05:01:32.355Z,99.90
2018-07-12T05:03:59.848Z,99.90
2018-07-12T05:06:34.584Z,99.90
2018-07-12T05:09:12.149Z,99.90
2018-07-12T05:11:41.508Z,99.90
2018-07-12T05:14:12.069Z,99.90
2018-07-12T05:16:39.475Z,99.90
2018-07-12T05:19:14.312Z,99.90
2018-07-12T05:21:47.573Z,99.90
2018-07-12T05:24:30.343Z,99.90
2018-07-12T05:27:19.030Z,99.90
2018-07-12T05:29:57.205Z,99.90
2018-07-12T05:32:38.933Z,99.90
2018-07-12T05:35:07.239Z,99.90
2018-07-12T05:37:39.225Z,99.90
2018-07-12T05:40:11.937Z,99.90
2018-07-12T05:42:40.319Z,99.90
2018-07-12T05:45:09.917Z,99.90
2018-07-12T05:47:38.319Z,99.90
2018-07-12T05:50:11.015Z,99.90
2018-07-12T05:52:39.691Z,99.90
2018-07-12T05:55:08.633Z,99.90
2018-07-12T05:57:38.619Z,99.90
2018-07-12T06:00:14.327Z,99.90
2018-07-12T06:03:02.703Z,99.90
2018-07-12T06:05:43.001Z,99.90
2018-07-12T06:08:18.185Z,99.90
2018-07-12T06:10:46.842Z,99.90
2018-07-12T06:13:31.243Z,99.90
2018-07-12T06:16:01.757Z,99.90
2018-07-12T06:21:24.704Z,99.90
2018-07-12T06:23:57.603Z,99.90
2018-07-12T06:26:34.286Z,99.90
2018-07-12T06:29:20.487Z,99.90
2018-07-12T06:31:55.619Z,99.90
2018-07-12T06:34:31.441Z,99.90
2018-07-12T06:37:01.965Z,99.90
2018-07-12T06:42:24.883Z,99.90
2018-07-12T06:44:53.463Z,99.90
2018-07-12T06:47:23.075Z,99.90
2018-07-12T06:49:52.699Z,99.90
2018-07-12T06:52:23.189Z,99.90
2018-07-12T06:54:54.972Z,99.90
2018-07-12T06:57:41.811Z,99.90
2018-07-12T07:00:16.609Z,99.90
2018-07-12T07:02:52.367Z,99.90
2018-07-12T07:05:26.308Z,99.90
2018-07-12T07:07:59.642Z,99.90
2018-07-12T07:10:30.182Z,99.90
2018-07-12T07:13:16.929Z,99.90
2018-07-12T07:15:53.893Z,99.90
2018-07-12T07:18:22.361Z,99.90
2018-07-12T07:21:13.715Z,99.90
2018-07-12T07:23:54.961Z,99.90
2018-07-12T07:26:28.931Z,99.90
2018-07-12T07:28:58.507Z,99.90
2018-07-12T07:31:40.064Z,99.90
2018-07-12T07:34:16.209Z,99.90
2018-07-12T07:37:07.600Z,99.90
2018-07-12T07:39:49.770Z,99.90
2018-07-12T07:42:18.143Z,99.90
2018-07-12T07:44:59.138Z,99.90
2018-07-12T07:47:27.503Z,99.90
2018-07-12T07:49:57.125Z,99.90
2018-07-12T07:52:25.494Z,99.90
2018-07-12T07:54:53.846Z,99.90
2018-07-12T07:57:22.290Z,99.90
2018-07-12T07:59:57.721Z,99.90
2018-07-12T08:02:44.246Z,99.90
2018-07-12T08:05:13.086Z,99.90
2018-07-12T08:07:46.594Z,99.90
2018-07-12T08:10:29.011Z,99.90
2018-07-12T08:13:09.418Z,99.90
2018-07-12T08:18:31.982Z,99.90
2018-07-12T08:21:10.516Z,99.90
2018-07-12T08:23:39.179Z,99.90
2018-07-12T08:26:07.911Z,99.90
2018-07-12T08:28:50.060Z,99.90
2018-07-12T08:31:19.715Z,99.90
2018-07-12T08:34:00.318Z,99.90
2018-07-12T08:36:40.941Z,99.90
2018-07-12T08:39:27.819Z,99.90
2018-07-12T08:41:56.449Z,99.90
2018-07-12T08:44:39.602Z,99.90
2018-07-12T08:47:28.318Z,99.90
2018-07-12T08:49:57.917Z,99.90
2018-07-12T08:52:26.606Z,99.90
2018-07-12T08:54:55.233Z,99.90
2018-07-12T08:57:47.005Z,99.90
2018-07-12T09:03:09.902Z,99.90
2018-07-12T09:05:50.209Z,99.90
2018-07-12T09:08:20.776Z,99.90
2018-07-12T09:10:49.511Z,99.90
2018-07-12T09:13:29.473Z,99.90
2018-07-12T09:15:57.907Z,99.90
2018-07-12T09:18:29.652Z,99.90
2018-07-12T09:20:59.275Z,99.90
2018-07-12T09:23:28.033Z,99.90
2018-07-12T09:25:56.629Z,99.90
2018-07-12T09:28:30.575Z,99.90
2018-07-12T09:31:01.051Z,99.90
2018-07-12T09:33:29.819Z,99.90
2018-07-12T09:36:11.614Z,99.90
2018-07-12T09:38:42.160Z,99.90
2018-07-12T09:44:04.607Z,99.90
2018-07-12T09:46:41.137Z,99.90
2018-07-12T09:49:15.132Z,99.90
2018-07-12T09:51:52.033Z,99.90
2018-07-12T09:54:20.700Z,99.90
2018-07-12T10:01:21.837Z,99.90
2018-07-12T10:03:52.465Z,99.90
2018-07-12T10:06:25.939Z,99.90
2018-07-12T10:08:59.883Z,99.90
2018-07-12T10:11:47.729Z,99.90
2018-07-12T10:14:21.547Z,99.90
2018-07-12T10:16:55.144Z,99.90
2018-07-12T10:19:27.522Z,99.90
2018-07-12T10:22:10.754Z,99.90
2018-07-12T10:24:56.585Z,99.90
2018-07-12T10:27:25.241Z,99.90
2018-07-12T10:29:59.162Z,99.90
2018-07-12T10:32:40.403Z,99.90
2018-07-12T10:35:12.268Z,99.90
2018-07-12T10:40:38.727Z,99.90
2018-07-12T10:43:07.079Z,99.90
2018-07-12T10:45:35.458Z,99.90
2018-07-12T10:48:06.219Z,99.90
2018-07-12T10:50:40.907Z,99.90
2018-07-12T10:53:11.395Z,99.90
2018-07-12T10:55:41.939Z,99.90
2018-07-12T10:58:14.620Z,99.90
2018-07-12T11:00:43.329Z,99.90
2018-07-12T11:03:30.201Z,99.90
2018-07-12T11:06:12.732Z,99.90
2018-07-12T11:08:41.320Z,99.90
2018-07-12T11:11:24.159Z,99.90
2018-07-12T11:14:05.686Z,99.90
2018-07-12T11:16:40.868Z,99.90
2018-07-12T11:24:57.580Z,99.90
2018-07-12T11:27:29.665Z,99.90
2018-07-12T11:29:59.138Z,99.90
2018-07-12T11:32:29.781Z,99.90
2018-07-12T11:37:59.423Z,99.90
2018-07-12T11:40:27.809Z,99.90
2018-07-12T11:42:58.400Z,99.90
2018-07-12T11:45:27.055Z,99.90
2018-07-12T11:47:55.741Z,99.80
2018-07-12T11:50:24.407Z,99.90
2018-07-12T11:52:52.782Z,99.50
2018-07-12T11:55:22.397Z,99.90
2018-07-12T11:57:50.778Z,99.90
2018-07-12T12:00:35.411Z,99.90
2018-07-12T12:03:07.892Z,99.30
2018-07-12T12:05:49.983Z,98.70
2018-07-12T12:08:30.056Z,98.60
2018-07-12T12:11:12.261Z,98.80
2018-07-12T12:13:45.077Z,98.90
2018-07-12T12:16:15.575Z,98.80
2018-07-12T12:21:21.165Z,99.10
2018-07-12T12:23:49.821Z,99.20
2018-07-12T12:26:24.963Z,98.10
2018-07-12T12:28:55.580Z,98.20
2018-07-12T12:31:35.013Z,98.20
2018-07-12T12:34:07.961Z,98.30
2018-07-12T12:36:44.321Z,98.10
2018-07-12T12:39:17.657Z,97.90
2018-07-12T12:44:56.405Z,98.80
2018-07-12T12:47:29.098Z,98.60
2018-07-12T12:49:59.707Z,98.10
2018-07-12T12:52:30.196Z,97.40
2018-07-12T12:54:58.861Z,97.70
2018-07-12T12:57:27.243Z,97.10
2018-07-12T12:59:59.335Z,97.30
2018-07-12T13:05:20.652Z,97.80
2018-07-12T13:07:53.037Z,97.90
2018-07-12T13:10:24.845Z,98.00
2018-07-12T13:12:55.288Z,97.60
2018-07-12T13:15:23.770Z,97.20
2018-07-12T13:18:09.890Z,98.00
2018-07-12T13:20:38.279Z,97.70
2018-07-12T13:23:08.821Z,97.10
2018-07-12T13:25:44.617Z,97.50
2018-07-12T13:31:27.130Z,97.20
2018-07-12T13:33:57.665Z,96.90
2018-07-12T13:36:27.244Z,96.70
2018-07-12T13:41:52.573Z,96.70
2018-07-12T13:44:22.871Z,96.50
2018-07-12T13:46:53.405Z,97.10
2018-07-12T13:49:22.067Z,97.40
2018-07-12T13:51:53.070Z,96.40
2018-07-12T13:54:27.673Z,95.80
2018-07-12T13:56:57.261Z,96.40
2018-07-12T13:59:27.815Z,96.30
2018-07-12T14:02:00.171Z,96.10
2018-07-12T14:04:40.253Z,96.00
2018-07-12T14:07:08.935Z,96.30
2018-07-12T14:09:38.573Z,95.50
2018-07-12T14:12:08.238Z,95.90
2018-07-12T14:17:12.013Z,95.90
2018-07-12T14:19:40.702Z,95.80
2018-07-12T14:22:11.189Z,95.80
2018-07-12T14:24:39.645Z,96.10
2018-07-12T14:27:08.394Z,95.90
2018-07-12T14:29:37.000Z,95.60
2018-07-12T14:32:05.661Z,95.00
2018-07-12T14:34:36.157Z,95.40
2018-07-12T14:37:06.852Z,95.50
2018-07-12T14:39:43.048Z,95.70
2018-07-12T14:42:12.662Z,96.10
2018-07-12T14:47:33.721Z,96.70
2018-07-12T14:50:21.455Z,96.90
2018-07-12T14:52:51.988Z,96.20
2018-07-12T14:55:24.278Z,96.50
2018-07-12T14:57:54.038Z,96.70
2018-07-12T15:00:24.063Z,97.10
2018-07-12T15:02:54.828Z,97.00
2018-07-12T15:05:23.535Z,96.70
2018-07-12T15:07:52.158Z,96.90
2018-07-12T15:10:28.539Z,96.60
2018-07-12T15:12:57.164Z,96.20
2018-07-12T15:15:38.718Z,95.90
2018-07-12T15:18:21.229Z,95.80
2018-07-12T15:21:01.619Z,95.90
2018-07-12T15:23:30.387Z,96.00
2018-07-12T15:26:00.982Z,95.60
2018-07-12T15:31:39.714Z,95.80
2018-07-12T15:34:08.009Z,96.00
2018-07-12T15:36:49.921Z,96.00
2018-07-12T15:39:24.141Z,96.20
2018-07-12T15:41:57.381Z,96.60
2018-07-12T15:44:38.005Z,96.70
2018-07-12T15:47:07.479Z,96.90
2018-07-12T15:49:36.514Z,97.10
2018-07-12T15:52:09.347Z,97.00
2018-07-12T15:54:47.289Z,95.90
2018-07-12T15:57:23.111Z,96.30
2018-07-12T15:59:58.586Z,96.20
2018-07-12T16:02:30.935Z,96.40
2018-07-12T16:05:05.135Z,96.40
2018-07-12T16:07:39.441Z,96.60
2018-07-12T16:10:08.960Z,96.50
2018-07-12T16:12:54.797Z,96.20
2018-07-12T16:15:26.792Z,96.40
2018-07-12T16:17:59.357Z,96.30
2018-07-12T16:20:28.072Z,96.70
2018-07-12T16:22:56.692Z,96.30
2018-07-12T16:25:27.254Z,97.00
2018-07-12T16:27:55.903Z,96.70
2018-07-12T16:30:28.075Z,96.50
2018-07-12T16:32:57.657Z,97.40
2018-07-12T16:35:26.330Z,98.10
2018-07-12T16:37:54.973Z,98.20
2018-07-12T16:40:23.695Z,98.30
2018-07-12T16:42:52.478Z,97.90
2018-07-12T16:45:21.198Z,98.20
2018-07-12T16:47:49.770Z,98.60
2018-07-12T16:50:22.591Z,98.10
2018-07-12T16:52:53.300Z,98.60
2018-07-12T16:55:24.168Z,98.70
2018-07-12T16:57:58.978Z,98.90
2018-07-12T17:00:29.372Z,99.20
2018-07-12T17:03:03.708Z,99.10
2018-07-12T17:05:37.930Z,99.30
2018-07-12T17:08:20.931Z,99.20
2018-07-12T17:10:54.613Z,99.30
2018-07-12T17:13:23.239Z,99.30
2018-07-12T17:16:08.513Z,99.40
2018-07-12T17:18:40.342Z,99.30
2018-07-12T17:21:10.814Z,99.40
2018-07-12T17:23:40.576Z,99.50
2018-07-12T17:26:10.830Z,99.60
2018-07-12T17:28:42.682Z,99.60
2018-07-12T17:31:15.096Z,99.20
2018-07-12T17:33:55.209Z,99.10
2018-07-12T17:36:26.360Z,99.40
2018-07-12T17:39:06.571Z,99.30
2018-07-12T17:41:37.647Z,99.50
2018-07-12T17:44:10.557Z,99.70
2018-07-12T17:46:41.147Z,99.90
2018-07-12T17:49:09.687Z,99.80
2018-07-12T17:51:42.422Z,99.80
2018-07-12T17:54:21.862Z,99.90
2018-07-12T17:57:02.946Z,99.80
2018-07-12T17:59:43.141Z,99.90
2018-07-12T18:02:13.077Z,99.90
2018-07-12T18:04:54.100Z,99.80
2018-07-12T18:09:54.867Z,99.90
2018-07-12T18:12:24.095Z,99.90
2018-07-12T18:14:53.769Z,99.90
2018-07-12T18:17:24.763Z,99.90
2018-07-12T18:19:56.024Z,99.90
2018-07-12T18:22:30.629Z,99.90
2018-07-12T18:25:04.926Z,99.90
2018-07-12T18:27:43.970Z,99.90
2018-07-12T18:30:23.665Z,99.90
2018-07-12T18:32:56.984Z,99.90
2018-07-12T18:35:26.583Z,99.90
2018-07-12T18:40:30.870Z,99.90
2018-07-12T18:43:04.331Z,99.90
2018-07-12T18:45:34.517Z,99.90
2018-07-12T18:48:07.649Z,99.90
2018-07-12T18:50:38.369Z,99.90
2018-07-12T18:53:08.839Z,99.90
2018-07-12T18:55:38.598Z,99.90
2018-07-12T18:58:11.307Z,99.90
2018-07-12T19:00:40.877Z,99.90
2018-07-12T19:03:11.057Z,99.90
2018-07-12T19:05:39.744Z,99.90
2018-07-12T19:08:08.441Z,99.90
2018-07-12T19:10:38.362Z,99.90
2018-07-12T19:13:07.124Z,99.90
2018-07-12T19:15:35.691Z,99.90
2018-07-12T19:18:07.204Z,99.90
2018-07-12T19:20:42.601Z,99.90
2018-07-12T19:23:11.525Z,99.90
2018-07-12T19:25:41.219Z,99.90
2018-07-12T19:28:10.734Z,99.90
2018-07-12T19:30:43.803Z,99.90
2018-07-12T19:33:13.953Z,99.90
2018-07-12T19:35:46.741Z,99.90
2018-07-12T19:38:18.979Z,99.90
2018-07-12T19:40:50.803Z,99.90
2018-07-12T19:43:22.575Z,99.90
2018-07-12T19:46:06.948Z,99.90
2018-07-12T19:48:36.480Z,99.90
2018-07-12T19:51:06.195Z,99.90
2018-07-12T19:53:35.708Z,99.90
2018-07-12T19:56:10.512Z,99.90
2018-07-12T19:58:39.567Z,99.90
2018-07-12T20:01:08.544Z,99.90
2018-07-12T20:03:39.406Z,99.90
2018-07-12T20:06:30.501Z,99.90
2018-07-12T20:09:13.428Z,99.90
2018-07-12T20:11:42.687Z,99.90
2018-07-12T20:14:17.182Z,99.90
2018-07-12T20:16:58.402Z,99.90
2018-07-12T20:19:28.459Z,99.90
2018-07-12T20:21:58.201Z,99.90
2018-07-12T20:24:37.063Z,99.90
2018-07-12T20:27:06.814Z,99.90
2018-07-12T20:29:35.530Z,99.90
2018-07-12T20:32:04.777Z,99.90
2018-07-12T20:34:41.012Z,99.90
2018-07-12T20:37:14.706Z,99.90
2018-07-12T20:39:43.494Z,99.90
2018-07-12T20:42:12.457Z,99.90
2018-07-12T20:44:42.190Z,99.90
2018-07-12T20:47:15.531Z,99.90
2018-07-12T20:49:44.852Z,99.90
2018-07-12T20:52:20.270Z,99.90
2018-07-12T20:54:49.630Z,99.90
2018-07-12T20:57:20.446Z,99.90
2018-07-12T20:59:54.935Z,99.90
2018-07-12T21:02:23.756Z,99.90
2018-07-12T21:04:58.080Z,99.90
2018-07-12T21:07:34.282Z,99.90
2018-07-12T21:10:04.903Z,99.90
2018-07-12T21:12:35.752Z,99.90
2018-07-12T21:15:05.399Z,99.90
2018-07-12T21:17:33.876Z,99.90
2018-07-12T21:20:02.657Z,99.90
2018-07-12T21:22:41.890Z,99.90
2018-07-12T21:25:10.729Z,99.90
2018-07-12T21:27:42.504Z,99.90
2018-07-12T21:30:13.128Z,99.90
2018-07-12T21:32:45.388Z,99.90
2018-07-12T21:35:15.978Z,99.90
2018-07-12T21:37:44.653Z,99.90
2018-07-12T21:40:14.221Z,99.90
2018-07-12T21:42:43.120Z,99.90
2018-07-12T21:45:11.597Z,99.90
2018-07-12T21:47:42.122Z,99.90
2018-07-12T21:50:10.823Z,99.90
2018-07-12T21:52:47.455Z,99.90
2018-07-12T21:55:17.229Z,99.90
2018-07-12T21:57:45.900Z,99.90
2018-07-12T22:00:15.373Z,99.90
2018-07-12T22:02:47.700Z,99.90
2018-07-12T22:05:30.174Z,99.90
2018-07-12T22:08:20.710Z,99.90
2018-07-12T22:11:06.550Z,99.90
2018-07-12T22:13:37.914Z,99.90
2018-07-12T22:16:12.879Z,99.90
2018-07-12T22:18:41.243Z,99.90
2018-07-12T22:21:14.035Z,99.90
2018-07-12T22:23:46.398Z,99.90
2018-07-12T22:29:03.018Z,99.90
2018-07-12T22:31:36.998Z,99.90
2018-07-12T22:34:09.292Z,99.90
2018-07-12T22:36:46.424Z,99.90
2018-07-12T22:39:18.658Z,99.90
2018-07-12T22:42:03.318Z,99.90
2018-07-12T22:47:38.178Z,99.90
2018-07-12T22:50:22.858Z,99.90
2018-07-12T22:53:14.281Z,99.90
2018-07-12T22:55:56.896Z,99.90
2018-07-12T22:58:27.303Z,99.90
2018-07-12T23:01:15.969Z,99.90
2018-07-12T23:03:58.486Z,99.90
2018-07-12T23:06:26.889Z,99.90
2018-07-12T23:08:55.519Z,99.90
2018-07-12T23:11:25.187Z,99.90
2018-07-12T23:13:56.913Z,99.90
2018-07-12T23:16:25.290Z,99.90
2018-07-12T23:18:53.643Z,99.90
2018-07-12T23:21:34.059Z,99.90
2018-07-12T23:24:06.134Z,99.90
2018-07-12T23:29:34.338Z,99.90
2018-07-12T23:32:12.997Z,99.90
2018-07-12T23:34:50.922Z,99.90
2018-07-12T23:37:24.823Z,99.90
2018-07-12T23:39:57.205Z,99.90
2018-07-12T23:42:29.913Z,99.90
2018-07-12T23:45:01.681Z,99.90
2018-07-12T23:47:42.316Z,99.90
2018-07-12T23:50:14.407Z,99.90
2018-07-12T23:52:46.481Z,99.90
2018-07-12T23:55:18.240Z,99.90
2018-07-12T23:57:50.082Z,99.90
